createdAt,value
2023-04-08T00:02:15.906Z,10.70
2023-04-08T00:04:42.912Z,10.80
2023-04-08T00:07:09.555Z,10.98
2023-04-08T00:09:36.337Z,11.17
2023-04-08T00:12:03.040Z,10.99
2023-04-08T00:14:29.587Z,10.80
2023-04-08T00:16:56.296Z,10.61
2023-04-08T00:19:22.848Z,10.81
2023-04-08T00:21:49.365Z,11.11
2023-04-08T00:24:16.610Z,10.47
2023-04-08T00:26:43.355Z,11.16
2023-04-08T00:29:09.890Z,10.75
2023-04-08T00:31:36.697Z,11.20
2023-04-08T00:34:03.220Z,11.14
2023-04-08T00:36:29.848Z,11.52
2023-04-08T00:38:56.777Z,11.22
2023-04-08T00:41:23.431Z,11.31
2023-04-08T00:43:49.925Z,11.44
2023-04-08T00:46:16.730Z,11.40
2023-04-08T00:48:43.389Z,10.57
2023-04-08T00:51:09.954Z,9.63
2023-04-08T00:53:36.583Z,9.91
2023-04-08T00:56:03.532Z,9.87
2023-04-08T00:58:30.395Z,10.12
2023-04-08T01:01:11.412Z,10.43
2023-04-08T01:03:47.398Z,9.81
2023-04-08T01:06:23.792Z,9.22
2023-04-08T01:08:51.838Z,9.24
2023-04-08T01:11:18.840Z,8.67
2023-04-08T01:13:46.637Z,9.19
2023-04-08T01:16:14.774Z,8.75
2023-04-08T01:18:42.449Z,9.16
2023-04-08T01:21:09.703Z,9.42
2023-04-08T01:23:47.007Z,9.38
2023-04-08T01:26:22.249Z,9.95
2023-04-08T01:28:51.679Z,9.74
2023-04-08T01:31:18.716Z,9.05
2023-04-08T01:33:46.112Z,9.52
2023-04-08T01:36:13.236Z,10.26
2023-04-08T01:38:40.614Z,10.16
2023-04-08T01:41:09.467Z,10.39
2023-04-08T01:43:36.341Z,10.40
2023-04-08T01:46:03.005Z,10.20
2023-04-08T01:48:30.107Z,10.28
2023-04-08T01:50:57.248Z,9.71
2023-04-08T01:53:24.055Z,10.13
2023-04-08T01:55:55.725Z,10.11
2023-04-08T01:58:22.842Z,10.14
2023-04-08T02:00:50.041Z,10.61
2023-04-08T02:03:19.560Z,9.93
2023-04-08T02:05:46.360Z,9.99
2023-04-08T02:08:13.146Z,9.59
2023-04-08T02:10:40.756Z,9.22
2023-04-08T02:13:07.906Z,9.55
2023-04-08T02:15:35.716Z,9.97
2023-04-08T02:18:16.153Z,10.09
2023-04-08T02:20:51.433Z,9.63
2023-04-08T02:23:24.069Z,10.03
2023-04-08T02:25:53.251Z,10.37
2023-04-08T02:28:19.856Z,10.43
2023-04-08T02:30:51.490Z,10.51
2023-04-08T02:33:19.908Z,10.40
2023-04-08T02:35:48.027Z,10.59
2023-04-08T02:38:14.669Z,10.58
2023-04-08T02:40:41.919Z,10.74
2023-04-08T02:43:08.408Z,11.15
2023-04-08T02:45:42.831Z,11.30
2023-04-08T02:48:10.196Z,11.20
2023-04-08T02:50:37.340Z,10.94
2023-04-08T02:53:04.017Z,10.74
2023-04-08T02:55:30.610Z,10.87
2023-04-08T02:57:57.160Z,11.08
2023-04-08T03:00:23.738Z,10.93
2023-04-08T03:02:50.561Z,10.87
2023-04-08T03:05:17.537Z,11.34
2023-04-08T03:07:44.654Z,11.38
2023-04-08T03:10:12.177Z,11.34
2023-04-08T03:12:38.813Z,11.24
2023-04-08T03:15:06.207Z,11.12
2023-04-08T03:17:34.646Z,11.32
2023-04-08T03:20:04.077Z,11.11
2023-04-08T03:22:31.030Z,10.83
2023-04-08T03:24:57.935Z,10.98
2023-04-08T03:27:24.481Z,10.82
2023-04-08T03:29:51.085Z,10.60
2023-04-08T03:32:18.049Z,10.26
2023-04-08T03:34:44.599Z,10.70
2023-04-08T03:37:11.395Z,10.55
2023-04-08T03:39:38.456Z,10.86
2023-04-08T03:42:05.005Z,10.91
2023-04-08T03:44:31.566Z,10.96
2023-04-08T03:46:58.319Z,11.15
2023-04-08T03:49:24.818Z,11.17
2023-04-08T03:51:51.494Z,10.13
2023-04-08T03:54:18.138Z,10.57
2023-04-08T03:56:44.708Z,10.85
2023-04-08T03:59:11.280Z,10.69
2023-04-08T04:01:38.281Z,11.06
2023-04-08T04:04:05.752Z,10.98
2023-04-08T04:06:32.465Z,11.02
2023-04-08T04:08:58.993Z,11.17
2023-04-08T04:11:26.411Z,11.30
2023-04-08T04:13:52.993Z,11.05
2023-04-08T04:16:20.208Z,11.09
2023-04-08T04:18:46.795Z,11.16
2023-04-08T04:21:13.323Z,11.02
2023-04-08T04:23:39.990Z,11.28
2023-04-08T04:26:10.094Z,10.44
2023-04-08T04:28:36.970Z,10.93
2023-04-08T04:31:03.746Z,11.09
2023-04-08T04:33:31.058Z,10.71
2023-04-08T04:35:57.615Z,11.25
2023-04-08T04:38:24.359Z,10.91
2023-04-08T04:40:51.218Z,11.06
2023-04-08T04:43:17.743Z,10.91
2023-04-08T04:45:45.051Z,11.02
2023-04-08T04:48:11.627Z,11.07
2023-04-08T04:50:38.426Z,11.10
2023-04-08T04:53:05.018Z,11.16
2023-04-08T04:55:31.540Z,11.31
2023-04-08T04:57:58.033Z,11.27
2023-04-08T05:00:24.548Z,11.41
2023-04-08T05:02:51.725Z,11.25
2023-04-08T05:05:18.484Z,11.18
2023-04-08T05:07:45.098Z,11.19
2023-04-08T05:10:11.945Z,11.17
2023-04-08T05:12:38.743Z,10.66
2023-04-08T05:15:06.561Z,11.02
2023-04-08T05:17:33.106Z,10.15
2023-04-08T05:19:59.758Z,10.07
2023-04-08T05:22:26.500Z,10.40
2023-04-08T05:24:53.056Z,10.45
2023-04-08T05:27:21.594Z,10.54
2023-04-08T05:29:48.152Z,10.74
2023-04-08T05:32:16.695Z,11.07
2023-04-08T05:34:43.702Z,11.04
2023-04-08T05:37:10.418Z,11.10
2023-04-08T05:39:37.029Z,10.99
2023-04-08T05:42:03.720Z,11.25
2023-04-08T05:44:30.756Z,11.14
2023-04-08T05:46:58.218Z,11.53
2023-04-08T05:49:24.836Z,11.51
2023-04-08T05:51:51.471Z,11.59
2023-04-08T05:54:17.997Z,11.62
2023-04-08T05:56:46.320Z,11.80
2023-04-08T05:59:12.947Z,11.90
2023-04-08T06:01:39.512Z,11.96
2023-04-08T06:04:06.315Z,11.87
2023-04-08T06:06:33.293Z,12.06
2023-04-08T06:08:59.928Z,12.08
2023-04-08T06:11:26.520Z,11.45
2023-04-08T06:13:53.288Z,12.34
2023-04-08T06:16:21.219Z,12.43
2023-04-08T06:18:49.115Z,12.49
2023-04-08T06:21:16.580Z,12.28
2023-04-08T06:23:43.108Z,12.54
2023-04-08T06:26:09.936Z,12.50
2023-04-08T06:28:36.759Z,12.62
2023-04-08T06:31:03.594Z,12.74
2023-04-08T06:33:30.478Z,12.73
2023-04-08T06:36:04.419Z,12.95
2023-04-08T06:38:32.088Z,12.79
2023-04-08T06:41:06.401Z,12.37
2023-04-08T06:43:33.788Z,12.25
2023-04-08T06:46:00.567Z,12.47
2023-04-08T06:48:33.274Z,12.56
2023-04-08T06:51:01.437Z,12.87
2023-04-08T06:53:32.785Z,13.06
2023-04-08T06:55:59.969Z,13.39
2023-04-08T06:58:27.260Z,13.32
2023-04-08T07:00:56.249Z,13.62
2023-04-08T07:03:23.370Z,13.91
2023-04-08T07:05:50.052Z,13.68
2023-04-08T07:08:16.637Z,13.97
2023-04-08T07:10:43.411Z,13.82
2023-04-08T07:13:10.491Z,13.86
2023-04-08T07:15:39.912Z,13.86
2023-04-08T07:18:06.496Z,13.69
2023-04-08T07:20:35.856Z,13.58
2023-04-08T07:23:02.373Z,13.57
2023-04-08T07:25:28.917Z,13.50
2023-04-08T07:27:56.217Z,13.57
2023-04-08T07:30:22.755Z,13.25
2023-04-08T07:32:49.326Z,13.34
2023-04-08T07:35:19.139Z,13.38
2023-04-08T07:37:46.060Z,13.45
2023-04-08T07:40:12.779Z,13.41
2023-04-08T07:42:40.820Z,12.92
2023-04-08T07:45:08.250Z,13.20
2023-04-08T07:47:34.895Z,12.64
2023-04-08T07:50:01.588Z,13.09
2023-04-08T07:52:28.239Z,13.45
2023-04-08T07:54:55.001Z,12.80
2023-04-08T07:57:21.946Z,13.14
2023-04-08T07:59:48.838Z,13.23
2023-04-08T08:02:15.583Z,13.36
2023-04-08T08:04:42.391Z,13.28
2023-04-08T08:07:09.215Z,13.28
2023-04-08T08:09:35.868Z,13.44
2023-04-08T08:12:02.889Z,13.80
2023-04-08T08:14:29.441Z,13.94
2023-04-08T08:16:56.680Z,13.80
2023-04-08T08:19:23.219Z,14.46
2023-04-08T08:21:49.738Z,14.77
2023-04-08T08:24:17.377Z,15.15
2023-04-08T08:26:45.548Z,14.97
2023-04-08T08:29:12.052Z,14.55
2023-04-08T08:31:38.592Z,14.08
2023-04-08T08:34:05.310Z,14.07
2023-04-08T08:36:33.496Z,14.01
2023-04-08T08:39:01.957Z,14.10
2023-04-08T08:41:33.463Z,14.06
2023-04-08T08:44:00.651Z,14.32
2023-04-08T08:46:27.566Z,14.69
2023-04-08T08:48:54.293Z,14.85
2023-04-08T08:51:21.221Z,14.57
2023-04-08T08:53:47.861Z,14.87
2023-04-08T08:56:18.268Z,14.86
2023-04-08T08:58:45.699Z,14.39
2023-04-08T09:01:32.239Z,14.69
2023-04-08T09:04:12.674Z,14.52
2023-04-08T09:06:39.899Z,14.24
2023-04-08T09:09:10.226Z,14.71
2023-04-08T09:11:42.407Z,14.28
2023-04-08T09:14:24.769Z,14.23
2023-04-08T09:16:52.452Z,14.79
2023-04-08T09:19:19.406Z,14.47
2023-04-08T09:22:04.844Z,14.44
2023-04-08T09:24:31.943Z,14.09
2023-04-08T09:26:58.830Z,14.26
2023-04-08T09:29:32.071Z,14.12
2023-04-08T09:32:01.629Z,14.14
2023-04-08T09:34:29.532Z,13.63
2023-04-08T09:36:56.787Z,14.31
2023-04-08T09:39:23.704Z,14.06
2023-04-08T09:41:51.608Z,14.88
2023-04-08T09:44:20.922Z,15.25
2023-04-08T09:46:56.978Z,14.95
2023-04-08T09:49:27.456Z,14.91
2023-04-08T09:52:18.982Z,14.63
2023-04-08T09:54:57.712Z,15.26
2023-04-08T09:57:53.188Z,14.77
2023-04-08T10:00:22.181Z,14.13
2023-04-08T10:03:12.723Z,14.69
2023-04-08T10:05:42.314Z,14.87
2023-04-08T10:08:08.981Z,14.54
2023-04-08T10:10:37.154Z,14.85
2023-04-08T10:13:04.599Z,14.68
2023-04-08T10:15:32.979Z,15.08
2023-04-08T10:18:05.674Z,15.35
2023-04-08T10:20:38.448Z,14.93
2023-04-08T10:23:13.265Z,15.39
2023-04-08T10:25:43.160Z,15.06
2023-04-08T10:28:17.792Z,15.52
2023-04-08T10:30:47.454Z,15.89
2023-04-08T10:33:16.900Z,15.57
2023-04-08T10:35:48.478Z,15.65
2023-04-08T10:38:16.143Z,15.02
2023-04-08T10:40:44.230Z,15.20
2023-04-08T10:43:12.018Z,15.64
2023-04-08T10:45:39.417Z,15.96
2023-04-08T10:48:24.521Z,16.17
2023-04-08T10:50:59.554Z,15.89
2023-04-08T10:53:34.942Z,16.31
2023-04-08T10:56:17.801Z,16.12
2023-04-08T10:58:56.336Z,16.40
2023-04-08T11:01:23.233Z,16.00
2023-04-08T11:03:50.484Z,16.11
2023-04-08T11:06:17.904Z,16.50
2023-04-08T11:08:44.862Z,16.02
2023-04-08T11:11:12.056Z,15.15
2023-04-08T11:13:52.086Z,15.36
2023-04-08T11:16:21.454Z,15.25
2023-04-08T11:18:48.467Z,15.85
2023-04-08T11:21:15.482Z,15.81
2023-04-08T11:23:42.585Z,15.95
2023-04-08T11:26:09.282Z,16.22
2023-04-08T11:28:35.847Z,16.78
2023-04-08T11:31:04.272Z,16.42
2023-04-08T11:33:31.801Z,16.78
2023-04-08T11:36:01.764Z,16.66
2023-04-08T11:38:28.525Z,16.60
2023-04-08T11:40:56.139Z,16.59
2023-04-08T11:43:23.405Z,15.39
2023-04-08T11:45:50.368Z,15.59
2023-04-08T11:48:17.393Z,15.26
2023-04-08T11:50:45.110Z,15.66
2023-04-08T11:53:22.332Z,15.34
2023-04-08T11:55:49.175Z,15.94
2023-04-08T11:58:15.962Z,15.64
2023-04-08T12:00:42.811Z,16.57
2023-04-08T12:03:10.576Z,17.07
2023-04-08T12:05:37.465Z,17.16
2023-04-08T12:08:04.296Z,16.69
2023-04-08T12:10:31.241Z,17.34
2023-04-08T12:12:57.833Z,17.55
2023-04-08T12:15:24.377Z,18.13
2023-04-08T12:17:51.042Z,16.86
2023-04-08T12:20:18.688Z,17.75
2023-04-08T12:22:45.542Z,17.97
2023-04-08T12:25:12.181Z,17.60
2023-04-08T12:27:38.728Z,18.77
2023-04-08T12:30:05.815Z,19.47
2023-04-08T12:32:33.610Z,19.21
2023-04-08T12:35:00.431Z,18.98
2023-04-08T12:37:27.623Z,18.80
2023-04-08T12:39:54.237Z,19.48
2023-04-08T12:42:20.821Z,18.36
2023-04-08T12:44:47.331Z,18.81
2023-04-08T12:47:13.908Z,17.77
2023-04-08T12:52:10.076Z,17.37
2023-04-08T12:54:36.942Z,17.39
2023-04-08T12:57:04.597Z,17.36
2023-04-08T12:59:32.158Z,16.82
2023-04-08T13:01:59.369Z,16.96
2023-04-08T13:04:25.966Z,16.85
2023-04-08T13:06:52.782Z,16.79
2023-04-08T13:09:19.305Z,15.89
2023-04-08T13:11:45.856Z,16.63
2023-04-08T13:14:13.718Z,16.77
2023-04-08T13:16:40.540Z,16.26
2023-04-08T13:19:07.184Z,16.67
2023-04-08T13:21:33.991Z,15.84
2023-04-08T13:24:00.779Z,16.50
2023-04-08T13:26:27.372Z,16.02
2023-04-08T13:28:57.381Z,16.28
2023-04-08T13:31:25.319Z,16.24
2023-04-08T13:33:52.314Z,16.48
2023-04-08T13:36:19.948Z,16.83
2023-04-08T13:38:46.550Z,16.85
2023-04-08T13:41:13.057Z,17.21
2023-04-08T13:43:39.558Z,17.59
2023-04-08T13:46:06.321Z,17.11
2023-04-08T13:48:32.913Z,18.05
2023-04-08T13:50:59.468Z,17.80
2023-04-08T13:53:26.140Z,17.40
2023-04-08T13:55:55.133Z,17.51
2023-04-08T13:58:24.094Z,17.13
2023-04-08T14:00:54.049Z,17.86
2023-04-08T14:03:20.840Z,17.48
2023-04-08T14:05:47.627Z,16.93
2023-04-08T14:08:14.223Z,16.64
2023-04-08T14:10:42.257Z,16.77
2023-04-08T14:13:09.338Z,17.01
2023-04-08T14:15:36.076Z,16.38
2023-04-08T14:18:02.831Z,16.21
2023-04-08T14:20:29.900Z,16.17
2023-04-08T14:22:56.789Z,16.01
2023-04-08T14:25:24.222Z,16.27
2023-04-08T14:27:58.512Z,15.71
2023-04-08T14:30:26.957Z,15.67
2023-04-08T14:32:54.004Z,16.19
2023-04-08T14:35:20.767Z,15.72
2023-04-08T14:37:47.611Z,16.25
2023-04-08T14:40:14.145Z,16.35
2023-04-08T14:42:40.770Z,16.80
2023-04-08T14:45:07.936Z,16.97
2023-04-08T14:47:34.474Z,16.42
2023-04-08T14:50:01.053Z,16.18
2023-04-08T14:52:27.728Z,16.16
2023-04-08T14:54:54.248Z,16.70
2023-04-08T14:57:20.912Z,16.79
2023-04-08T14:59:48.077Z,16.75
2023-04-08T15:02:14.752Z,16.66
2023-04-08T15:04:41.516Z,15.73
2023-04-08T15:07:08.165Z,16.01
2023-04-08T15:09:34.649Z,15.73
2023-04-08T15:12:01.757Z,16.37
2023-04-08T15:14:28.251Z,16.15
2023-04-08T15:16:54.735Z,16.91
2023-04-08T15:19:21.278Z,16.53
2023-04-08T15:21:48.262Z,16.28
2023-04-08T15:24:14.894Z,15.86
2023-04-08T15:26:41.744Z,15.70
2023-04-08T15:29:08.293Z,16.05
2023-04-08T15:31:35.270Z,15.71
2023-04-08T15:34:02.850Z,16.15
2023-04-08T15:36:30.427Z,16.36
2023-04-08T15:38:57.097Z,16.53
2023-04-08T15:41:23.642Z,16.50
2023-04-08T15:43:50.216Z,16.55
2023-04-08T15:46:20.854Z,16.39
2023-04-08T15:48:48.078Z,15.87
2023-04-08T15:51:14.620Z,15.73
2023-04-08T15:53:41.683Z,15.68
2023-04-08T15:56:18.105Z,15.51
2023-04-08T15:58:45.989Z,15.65
2023-04-08T16:01:13.487Z,15.58
2023-04-08T16:03:40.082Z,15.21
2023-04-08T16:06:07.694Z,15.32
2023-04-08T16:08:34.796Z,15.48
2023-04-08T16:11:04.424Z,14.66
2023-04-08T16:13:31.346Z,15.10
2023-04-08T16:16:01.957Z,14.68
2023-04-08T16:18:29.399Z,15.18
2023-04-08T16:20:56.822Z,14.80
2023-04-08T16:23:23.792Z,14.84
2023-04-08T16:25:50.333Z,15.18
2023-04-08T16:28:18.069Z,15.45
2023-04-08T16:30:44.641Z,15.08
2023-04-08T16:33:13.835Z,14.81
2023-04-08T16:35:40.435Z,15.21
2023-04-08T16:38:07.133Z,15.11
2023-04-08T16:40:34.934Z,15.29
2023-04-08T16:43:02.355Z,15.01
2023-04-08T16:45:29.991Z,14.61
2023-04-08T16:47:57.231Z,14.63
2023-04-08T16:50:24.197Z,14.16
2023-04-08T16:52:50.823Z,14.34
2023-04-08T16:55:17.810Z,14.21
2023-04-08T16:57:44.704Z,14.58
2023-04-08T17:00:11.739Z,14.83
2023-04-08T17:02:38.520Z,14.54
2023-04-08T17:05:05.476Z,14.28
2023-04-08T17:07:35.227Z,14.55
2023-04-08T17:10:01.838Z,14.58
2023-04-08T17:12:28.760Z,14.46
2023-04-08T17:14:55.232Z,14.14
2023-04-08T17:17:21.836Z,14.06
2023-04-08T17:19:48.452Z,14.26
2023-04-08T17:22:14.934Z,13.62
2023-04-08T17:24:41.881Z,13.60
2023-04-08T17:27:08.528Z,13.34
2023-04-08T17:29:35.051Z,13.80
2023-04-08T17:32:01.645Z,13.60
2023-04-08T17:34:29.171Z,13.25
2023-04-08T17:36:56.781Z,13.01
2023-04-08T17:39:23.410Z,12.60
2023-04-08T17:41:50.385Z,12.58
2023-04-08T17:44:17.200Z,12.76
2023-04-08T17:46:43.760Z,13.02
2023-04-08T17:49:12.780Z,12.64
2023-04-08T17:51:39.365Z,13.24
2023-04-08T17:54:05.918Z,13.06
2023-04-08T17:56:33.376Z,13.63
2023-04-08T17:59:00.443Z,13.24
2023-04-08T18:01:27.182Z,13.02
2023-04-08T18:03:54.367Z,13.02
2023-04-08T18:06:21.252Z,13.24
2023-04-08T18:08:47.863Z,13.28
2023-04-08T18:11:14.474Z,13.46
2023-04-08T18:13:41.079Z,13.33
2023-04-08T18:16:15.616Z,13.62
2023-04-08T18:18:42.222Z,13.50
2023-04-08T18:21:08.820Z,13.42
2023-04-08T18:23:35.307Z,13.24
2023-04-08T18:26:01.867Z,13.56
2023-04-08T18:28:28.439Z,13.72
2023-04-08T18:30:55.301Z,13.29
2023-04-08T18:33:21.953Z,13.29
2023-04-08T18:35:48.514Z,13.63
2023-04-08T18:38:15.108Z,13.49
2023-04-08T18:40:42.114Z,13.36
2023-04-08T18:43:09.558Z,13.37
2023-04-08T18:45:36.616Z,13.80
2023-04-08T18:48:03.269Z,13.70
2023-04-08T18:50:29.775Z,13.44
2023-04-08T18:52:56.613Z,13.49
2023-04-08T18:55:23.189Z,12.93
2023-04-08T18:57:50.740Z,13.87
2023-04-08T19:00:17.320Z,13.70
2023-04-08T19:02:44.032Z,13.27
2023-04-08T19:05:10.745Z,13.73
2023-04-08T19:07:37.185Z,13.74
2023-04-08T19:10:03.935Z,13.35
2023-04-08T19:12:31.502Z,13.71
2023-04-08T19:14:59.384Z,14.04
2023-04-08T19:17:26.206Z,13.77
2023-04-08T19:19:52.690Z,13.62
2023-04-08T19:22:19.312Z,13.62
2023-04-08T19:24:45.932Z,13.48
2023-04-08T19:27:14.424Z,13.75
2023-04-08T19:29:40.959Z,12.96
2023-04-08T19:32:07.827Z,12.55
2023-04-08T19:34:38.491Z,12.41
2023-04-08T19:37:06.553Z,12.79
2023-04-08T19:39:33.422Z,12.41
2023-04-08T19:41:59.966Z,13.38
2023-04-08T19:44:27.165Z,13.21
2023-04-08T19:46:54.565Z,13.30
2023-04-08T19:49:21.810Z,13.17
2023-04-08T19:51:48.605Z,13.47
2023-04-08T19:54:15.141Z,12.98
2023-04-08T19:56:41.787Z,12.82
2023-04-08T19:59:08.292Z,13.22
2023-04-08T20:01:35.989Z,13.05
2023-04-08T20:04:02.735Z,13.09
2023-04-08T20:06:29.642Z,13.62
2023-04-08T20:08:56.239Z,13.21
2023-04-08T20:11:23.075Z,13.11
2023-04-08T20:13:51.412Z,13.25
2023-04-08T20:16:18.602Z,13.45
2023-04-08T20:18:47.856Z,13.56
2023-04-08T20:21:14.728Z,13.14
2023-04-08T20:23:44.298Z,13.37
2023-04-08T20:26:12.626Z,13.03
2023-04-08T20:28:39.743Z,13.19
2023-04-08T20:31:07.403Z,13.58
2023-04-08T20:33:33.998Z,13.49
2023-04-08T20:36:01.079Z,14.00
2023-04-08T20:38:28.188Z,13.73
2023-04-08T20:40:54.745Z,14.06
2023-04-08T20:43:21.245Z,13.93
2023-04-08T20:45:48.103Z,14.16
2023-04-08T20:48:14.556Z,13.95
2023-04-08T20:50:41.456Z,13.91
2023-04-08T20:53:08.432Z,14.24
2023-04-08T20:55:35.063Z,14.23
2023-04-08T20:58:05.606Z,13.98
2023-04-08T21:00:32.225Z,13.61
2023-04-08T21:02:59.606Z,13.99
2023-04-08T21:05:26.556Z,13.79
2023-04-08T21:07:53.193Z,13.57
2023-04-08T21:10:19.772Z,13.41
2023-04-08T21:12:46.285Z,13.19
2023-04-08T21:15:12.826Z,13.12
2023-04-08T21:17:39.359Z,12.52
2023-04-08T21:20:06.591Z,12.80
2023-04-08T21:22:33.056Z,12.54
2023-04-08T21:24:59.588Z,12.57
2023-04-08T21:27:26.082Z,12.64
2023-04-08T21:29:52.782Z,12.73
2023-04-08T21:32:19.589Z,12.85
2023-04-08T21:34:48.887Z,12.25
2023-04-08T21:37:15.457Z,12.49
2023-04-08T21:39:41.983Z,12.65
2023-04-08T21:42:08.494Z,12.48
2023-04-08T21:44:35.024Z,12.43
2023-04-08T21:47:02.184Z,12.48
2023-04-08T21:49:29.806Z,12.68
2023-04-08T21:51:56.349Z,12.70
2023-04-08T21:54:23.295Z,12.75
2023-04-08T21:56:49.848Z,12.25
2023-04-08T21:59:16.602Z,12.41
2023-04-08T22:01:43.341Z,12.42
2023-04-08T22:04:11.011Z,12.18
2023-04-08T22:06:37.633Z,12.16
2023-04-08T22:09:04.489Z,12.01
2023-04-08T22:11:31.199Z,11.65
2023-04-08T22:13:57.967Z,12.11
2023-04-08T22:16:24.570Z,12.00
2023-04-08T22:18:51.796Z,12.09
2023-04-08T22:21:18.575Z,12.38
2023-04-08T22:23:46.053Z,12.19
2023-04-08T22:26:13.519Z,12.19
2023-04-08T22:28:41.779Z,11.91
2023-04-08T22:31:12.289Z,11.74
2023-04-08T22:33:39.706Z,11.61
2023-04-08T22:36:06.606Z,11.71
2023-04-08T22:38:33.276Z,11.48
2023-04-08T22:40:59.881Z,11.79
2023-04-08T22:43:27.117Z,11.65
2023-04-08T22:45:53.633Z,11.81
2023-04-08T22:48:20.301Z,11.92
2023-04-08T22:50:46.981Z,11.84
2023-04-08T22:53:13.585Z,11.98
2023-04-08T22:55:40.228Z,11.86
2023-04-08T22:58:06.797Z,11.97
2023-04-08T23:00:33.341Z,11.80
2023-04-08T23:03:04.115Z,11.87
2023-04-08T23:05:31.183Z,11.80
2023-04-08T23:07:57.796Z,11.13
2023-04-08T23:10:24.304Z,10.84
2023-04-08T23:12:50.995Z,11.08
2023-04-08T23:15:17.931Z,11.54
2023-04-08T23:17:44.469Z,11.62
2023-04-08T23:20:11.525Z,11.30
2023-04-08T23:22:38.167Z,11.37
2023-04-08T23:25:05.242Z,11.57
2023-04-08T23:27:31.801Z,11.51
2023-04-08T23:29:58.382Z,11.28
2023-04-08T23:32:24.961Z,11.57
2023-04-08T23:34:51.487Z,11.35
2023-04-08T23:37:18.119Z,11.36
2023-04-08T23:39:44.620Z,11.31
2023-04-08T23:42:11.208Z,11.49
2023-04-08T23:44:37.715Z,11.51
2023-04-08T23:47:04.267Z,11.33
2023-04-08T23:49:30.916Z,11.55
2023-04-08T23:51:57.544Z,11.37
2023-04-08T23:54:24.223Z,10.81
2023-04-08T23:56:50.735Z,10.93
2023-04-08T23:59:17.402Z,10.84
